Flag for Tajikistan

Past Weather in Dushanbe, Tajikistan — Yesterday and Last 2 Weeks

Currently: 55 °F. Clear. (Weather station: Dushanbe Airport, Tajikistan). See more current weather

Past Weather in Dushanbe — Graph

°F

Dushanbe Temperature Yesterday

Maximum temperature yesterday: 52 °F (at 1:30 am)
Minimum temperature yesterday: 36 °F (at 9:30 pm)
Average temperature yesterday: 43 °F

High & Low Weather Summary for the Past Weeks

 TemperatureHumidityPressure
High66 °F (Nov 17, 3:30 pm)100% (Nov 14, 3:00 pm)30.77 "Hg (Nov 14, 3:00 pm)
Low25 °F (Nov 21, 7:00 am)21% (Nov 16, 3:30 pm)30.12 "Hg (Nov 22, 4:00 am)
Average38 °F76%30.33 "Hg
* Reported Nov 14 3:00 pm — Nov 29 3:30 pm, Dushanbe. Weather by CustomWeather, © 2020

Note: Actual official high and low records may vary slightly from our data, if they occured in-between our weather recording intervals... More about our weather records

Dushanbe Weather History for the Previous 24 Hours

Scroll right to see more
 ConditionsComfort  
Time TempWeatherWind HumidityBarometerVisibility
3:30 pm
Sun, Nov 29
55 °FClear.1 mph33%30.39 "Hg3 mi
3:00 pm55 °FClear.1 mph33%30.39 "Hg3 mi
2:30 pm54 °FClear.3 mph38%30.39 "Hg3 mi
2:00 pm54 °FClear.3 mph41%30.42 "Hg3 mi
1:30 pm52 °FClear.3 mph47%30.42 "Hg2 mi
1:00 pm50 °FClear.3 mph47%30.45 "Hg2 mi
12:30 pm48 °FClear.1 mph54%30.45 "Hg2 mi
12:00 pm45 °FPassing clouds.1 mph61%30.48 "Hg2 mi
11:30 am43 °FQuite cool.No wind76%30.48 "Hg1 mi
11:00 am41 °FSleet. Cloudy.No wind87%30.51 "Hg1 mi
10:30 am37 °FSleet. Cloudy.1 mph93%30.51 "Hg1 mi
10:00 am34 °FSleet. Cloudy.1 mph93%30.51 "Hg0 mi
9:30 am34 °FSleet. Cloudy.1 mph93%30.51 "Hg0 mi
9:00 am32 °FSleet. Cloudy.3 mph93%30.51 "Hg0 mi
8:30 am30 °FSleet. Cloudy.1 mph93%30.48 "Hg0 mi
7:30 am30 °FSleet. Cloudy.No wind100%30.48 "Hg1 mi
7:00 am30 °FIce fog.No wind100%30.48 "Hg1 mi
6:30 am28 °FIce fog.1 mph100%30.48 "Hg1 mi
6:00 am30 °FIce fog.1 mph100%30.48 "Hg2 mi
5:30 am30 °FIce fog.1 mph100%30.48 "Hg1 mi
5:00 am32 °FIce fog.1 mph93%30.48 "Hg2 mi
4:30 am32 °FIce fog.No wind100%30.48 "Hg2 mi
4:00 am32 °FIce fog.No wind100%30.51 "Hg2 mi
3:30 am32 °FIce fog.No wind100%30.51 "Hg2 mi
3:00 am34 °FFog.1 mph93%30.51 "Hg2 mi
2:30 am34 °FFog.No wind93%30.51 "Hg1 mi
2:00 am34 °FFog.No wind93%30.54 "Hg1 mi
1:30 am34 °FChilly.1 mph93%30.54 "Hg1 mi
1:00 am34 °FSleet. Overcast.No wind93%30.54 "Hg0 mi
12:30 am34 °FSleet. Overcast.1 mph93%30.54 "Hg1 mi
12:00 am36 °FChilly.No wind93%30.57 "Hg1 mi
11:30 pm
Sat, Nov 28
37 °FSleet. Fog.1 mph93%30.57 "Hg2 mi
11:00 pm37 °FFog.3 mph93%30.57 "Hg1 mi
10:30 pm37 °FSleet. Fog.3 mph87%30.60 "Hg2 mi
10:00 pm36 °FSleet. Fog.3 mph93%30.60 "Hg1 mi
9:30 pm36 °FSleet. Fog.3 mph93%30.60 "Hg1 mi
9:00 pm37 °FFog.1 mph87%30.60 "Hg1 mi
8:30 pm37 °FFog.3 mph93%30.60 "Hg1 mi
8:00 pm37 °FFog.1 mph93%30.60 "Hg2 mi
7:30 pm39 °FFog.1 mph87%30.60 "Hg1 mi
7:00 pm39 °FFog.No wind93%30.60 "Hg2 mi
6:30 pm41 °FFog.1 mph87%30.60 "Hg3 mi
5:30 pm41 °FFog.1 mph87%30.60 "Hg2 mi
5:00 pm43 °FFog.3 mph81%30.60 "Hg2 mi
4:30 pm45 °FFog.3 mph76%30.63 "Hg2 mi
4:00 pm45 °FFog.3 mph76%30.63 "Hg3 mi
Weather by CustomWeather, © 2020

See weather overview